sensor_id;sensor_type;location;lat;lon;timestamp;P1;durP1;ratioP1;P2;durP2;ratioP2
9424;SDS011;17139;52.140;11.636;2023-03-01T00:01:28;8.63;;;3.80;;
9424;SDS011;17139;52.140;11.636;2023-03-01T00:03:56;4.50;;;4.17;;
9424;SDS011;17139;52.140;11.636;2023-03-01T00:06:24;4.57;;;4.27;;
9424;SDS011;17139;52.140;11.636;2023-03-01T00:08:52;4.10;;;3.80;;
9424;SDS011;17139;52.140;11.636;2023-03-01T00:11:20;4.63;;;4.22;;
9424;SDS011;17139;52.140;11.636;2023-03-01T00:13:51;6.43;;;4.60;;
9424;SDS011;17139;52.140;11.636;2023-03-01T00:16:21;3.73;;;3.53;;
9424;SDS011;17139;52.140;11.636;2023-03-01T00:18:49;4.13;;;3.87;;
9424;SDS011;17139;52.140;11.636;2023-03-01T00:21:16;6.30;;;3.80;;
9424;SDS011;17139;52.140;11.636;2023-03-01T00:23:44;5.10;;;4.20;;
9424;SDS011;17139;52.140;11.636;2023-03-01T00:26:13;5.00;;;4.10;;
9424;SDS011;17139;52.140;11.636;2023-03-01T00:28:41;3.67;;;3.37;;
9424;SDS011;17139;52.140;11.636;2023-03-01T00:31:11;3.83;;;3.63;;
9424;SDS011;17139;52.140;11.636;2023-03-01T00:33:40;2.70;;;2.60;;
9424;SDS011;17139;52.140;11.636;2023-03-01T00:36:07;3.77;;;3.57;;
9424;SDS011;17139;52.140;11.636;2023-03-01T00:38:36;6.70;;;5.55;;
9424;SDS011;17139;52.140;11.636;2023-03-01T00:41:04;9.15;;;7.45;;
9424;SDS011;17139;52.140;11.636;2023-03-01T00:43:34;4.67;;;4.30;;
9424;SDS011;17139;52.140;11.636;2023-03-01T00:46:02;10.37;;;4.13;;
9424;SDS011;17139;52.140;11.636;2023-03-01T00:48:31;4.90;;;4.40;;
9424;SDS011;17139;52.140;11.636;2023-03-01T00:51:03;6.30;;;5.20;;
9424;SDS011;17139;52.140;11.636;2023-03-01T00:53:31;4.03;;;3.83;;
9424;SDS011;17139;52.140;11.636;2023-03-01T00:55:59;6.27;;;4.47;;
9424;SDS011;17139;52.140;11.636;2023-03-01T00:58:26;4.00;;;3.60;;
9424;SDS011;17139;52.140;11.636;2023-03-01T01:00:53;4.43;;;4.03;;
9424;SDS011;17139;52.140;11.636;2023-03-01T01:03:20;6.53;;;6.05;;
9424;SDS011;17139;52.140;11.636;2023-03-01T01:05:51;8.27;;;7.43;;
9424;SDS011;17139;52.140;11.636;2023-03-01T01:08:18;5.73;;;4.90;;
9424;SDS011;17139;52.140;11.636;2023-03-01T01:10:46;4.47;;;4.27;;
9424;SDS011;17139;52.140;11.636;2023-03-01T01:13:13;5.07;;;4.70;;
9424;SDS011;17139;52.140;11.636;2023-03-01T01:15:40;3.30;;;3.03;;
9424;SDS011;17139;52.140;11.636;2023-03-01T01:18:07;3.93;;;3.73;;
9424;SDS011;17139;52.140;11.636;2023-03-01T01:20:35;3.43;;;3.20;;
9424;SDS011;17139;52.140;11.636;2023-03-01T01:23:06;3.03;;;2.73;;
9424;SDS011;17139;52.140;11.636;2023-03-01T01:25:34;3.33;;;3.00;;
9424;SDS011;17139;52.140;11.636;2023-03-01T01:28:02;7.20;;;6.70;;
9424;SDS011;17139;52.140;11.636;2023-03-01T01:30:29;5.03;;;4.63;;
9424;SDS011;17139;52.140;11.636;2023-03-01T01:32:56;4.53;;;4.23;;
9424;SDS011;17139;52.140;11.636;2023-03-01T01:35:23;3.53;;;3.30;;
9424;SDS011;17139;52.140;11.636;2023-03-01T01:37:50;5.73;;;3.47;;
9424;SDS011;17139;52.140;11.636;2023-03-01T01:40:19;3.63;;;3.43;;
9424;SDS011;17139;52.140;11.636;2023-03-01T01:42:46;2.73;;;2.63;;
9424;SDS011;17139;52.140;11.636;2023-03-01T01:48:03;6.20;;;4.20;;
9424;SDS011;17139;52.140;11.636;2023-03-01T01:50:36;6.55;;;5.80;;
9424;SDS011;17139;52.140;11.636;2023-03-01T01:53:06;7.40;;;6.80;;
9424;SDS011;17139;52.140;11.636;2023-03-01T01:55:39;3.90;;;3.70;;
9424;SDS011;17139;52.140;11.636;2023-03-01T01:58:09;3.57;;;3.23;;
9424;SDS011;17139;52.140;11.636;2023-03-01T02:00:40;4.17;;;3.77;;
9424;SDS011;17139;52.140;11.636;2023-03-01T02:03:08;3.57;;;3.37;;
9424;SDS011;17139;52.140;11.636;2023-03-01T02:05:38;3.50;;;2.97;;
9424;SDS011;17139;52.140;11.636;2023-03-01T02:08:11;2.73;;;2.53;;
9424;SDS011;17139;52.140;11.636;2023-03-01T02:10:41;2.97;;;2.83;;
9424;SDS011;17139;52.140;11.636;2023-03-01T02:13:09;3.40;;;3.17;;
9424;SDS011;17139;52.140;11.636;2023-03-01T02:15:37;3.37;;;3.10;;
9424;SDS011;17139;52.140;11.636;2023-03-01T02:18:05;3.63;;;3.40;;
9424;SDS011;17139;52.140;11.636;2023-03-01T02:20:34;4.87;;;3.50;;
9424;SDS011;17139;52.140;11.636;2023-03-01T02:23:21;5.60;;;5.13;;
9424;SDS011;17139;52.140;11.636;2023-03-01T02:25:51;3.23;;;3.03;;
9424;SDS011;17139;52.140;11.636;2023-03-01T02:28:26;3.20;;;3.00;;
9424;SDS011;17139;52.140;11.636;2023-03-01T02:30:56;3.30;;;3.20;;
9424;SDS011;17139;52.140;11.636;2023-03-01T02:33:40;3.13;;;2.93;;
9424;SDS011;17139;52.140;11.636;2023-03-01T02:36:10;2.90;;;2.70;;
9424;SDS011;17139;52.140;11.636;2023-03-01T02:38:41;3.10;;;2.90;;
9424;SDS011;17139;52.140;11.636;2023-03-01T02:41:09;2.90;;;2.67;;
9424;SDS011;17139;52.140;11.636;2023-03-01T02:43:39;2.83;;;2.57;;
9424;SDS011;17139;52.140;11.636;2023-03-01T02:46:07;2.40;;;2.30;;
9424;SDS011;17139;52.140;11.636;2023-03-01T02:48:40;3.00;;;2.80;;
9424;SDS011;17139;52.140;11.636;2023-03-01T02:51:11;4.20;;;3.08;;
9424;SDS011;17139;52.140;11.636;2023-03-01T02:53:49;6.15;;;5.00;;
9424;SDS011;17139;52.140;11.636;2023-03-01T02:56:25;4.53;;;3.50;;
9424;SDS011;17139;52.140;11.636;2023-03-01T02:58:53;3.73;;;3.43;;
9424;SDS011;17139;52.140;11.636;2023-03-01T03:01:26;3.37;;;3.17;;
9424;SDS011;17139;52.140;11.636;2023-03-01T03:04:01;3.13;;;2.93;;
9424;SDS011;17139;52.140;11.636;2023-03-01T03:06:29;3.30;;;3.00;;
9424;SDS011;17139;52.140;11.636;2023-03-01T03:08:56;3.60;;;3.40;;
9424;SDS011;17139;52.140;11.636;2023-03-01T03:11:23;6.60;;;3.93;;
9424;SDS011;17139;52.140;11.636;2023-03-01T03:13:51;3.23;;;2.43;;
9424;SDS011;17139;52.140;11.636;2023-03-01T03:16:20;4.57;;;3.30;;
9424;SDS011;17139;52.140;11.636;2023-03-01T03:18:47;6.50;;;5.90;;
9424;SDS011;17139;52.140;11.636;2023-03-01T03:21:14;5.00;;;4.03;;
9424;SDS011;17139;52.140;11.636;2023-03-01T03:23:42;3.37;;;3.17;;
9424;SDS011;17139;52.140;11.636;2023-03-01T03:26:09;2.90;;;2.70;;
9424;SDS011;17139;52.140;11.636;2023-03-01T03:28:38;3.27;;;3.07;;
9424;SDS011;17139;52.140;11.636;2023-03-01T03:31:06;3.03;;;2.93;;
9424;SDS011;17139;52.140;11.636;2023-03-01T03:33:35;2.73;;;2.63;;
9424;SDS011;17139;52.140;11.636;2023-03-01T03:36:02;4.07;;;2.30;;
9424;SDS011;17139;52.140;11.636;2023-03-01T03:38:29;2.60;;;2.27;;
9424;SDS011;17139;52.140;11.636;2023-03-01T03:41:00;3.23;;;2.60;;
9424;SDS011;17139;52.140;11.636;2023-03-01T03:43:29;5.07;;;4.47;;
9424;SDS011;17139;52.140;11.636;2023-03-01T03:45:57;8.27;;;6.25;;
9424;SDS011;17139;52.140;11.636;2023-03-01T03:48:24;4.33;;;3.07;;
9424;SDS011;17139;52.140;11.636;2023-03-01T03:50:54;4.20;;;3.17;;
9424;SDS011;17139;52.140;11.636;2023-03-01T03:53:23;3.77;;;2.87;;
9424;SDS011;17139;52.140;11.636;2023-03-01T03:55:51;10.23;;;3.07;;
9424;SDS011;17139;52.140;11.636;2023-03-01T03:58:19;2.80;;;2.60;;
9424;SDS011;17139;52.140;11.636;2023-03-01T04:00:49;2.90;;;2.67;;
9424;SDS011;17139;52.140;11.636;2023-03-01T04:03:17;2.93;;;2.77;;
9424;SDS011;17139;52.140;11.636;2023-03-01T04:05:46;5.90;;;2.70;;
9424;SDS011;17139;52.140;11.636;2023-03-01T04:08:16;5.22;;;4.63;;
9424;SDS011;17139;52.140;11.636;2023-03-01T04:10:45;4.00;;;2.80;;
9424;SDS011;17139;52.140;11.636;2023-03-01T04:13:15;2.80;;;2.60;;
9424;SDS011;17139;52.140;11.636;2023-03-01T04:15:44;3.17;;;2.97;;
9424;SDS011;17139;52.140;11.636;2023-03-01T04:18:12;5.63;;;5.22;;
9424;SDS011;17139;52.140;11.636;2023-03-01T04:20:41;2.80;;;2.70;;
9424;SDS011;17139;52.140;11.636;2023-03-01T04:23:10;3.60;;;3.30;;
9424;SDS011;17139;52.140;11.636;2023-03-01T04:25:42;2.40;;;2.30;;
9424;SDS011;17139;52.140;11.636;2023-03-01T04:28:19;3.40;;;3.20;;
9424;SDS011;17139;52.140;11.636;2023-03-01T04:30:47;3.27;;;3.03;;
9424;SDS011;17139;52.140;11.636;2023-03-01T04:33:14;3.50;;;2.43;;
9424;SDS011;17139;52.140;11.636;2023-03-01T04:35:41;2.83;;;2.63;;
9424;SDS011;17139;52.140;11.636;2023-03-01T04:38:08;2.43;;;2.23;;
9424;SDS011;17139;52.140;11.636;2023-03-01T04:40:36;2.90;;;2.70;;
9424;SDS011;17139;52.140;11.636;2023-03-01T04:43:04;3.53;;;3.23;;
9424;SDS011;17139;52.140;11.636;2023-03-01T04:45:32;3.83;;;2.70;;
9424;SDS011;17139;52.140;11.636;2023-03-01T04:48:00;3.27;;;2.57;;
9424;SDS011;17139;52.140;11.636;2023-03-01T04:50:27;3.30;;;2.63;;
9424;SDS011;17139;52.140;11.636;2023-03-01T04:52:55;2.90;;;2.57;;
9424;SDS011;17139;52.140;11.636;2023-03-01T04:55:23;4.03;;;2.50;;
9424;SDS011;17139;52.140;11.636;2023-03-01T04:57:51;2.60;;;2.40;;
9424;SDS011;17139;52.140;11.636;2023-03-01T05:00:21;3.17;;;2.90;;
9424;SDS011;17139;52.140;11.636;2023-03-01T05:02:49;2.00;;;1.90;;
9424;SDS011;17139;52.140;11.636;2023-03-01T05:05:23;2.53;;;2.33;;
9424;SDS011;17139;52.140;11.636;2023-03-01T05:07:53;3.23;;;2.13;;
9424;SDS011;17139;52.140;11.636;2023-03-01T05:10:21;2.70;;;2.50;;
9424;SDS011;17139;52.140;11.636;2023-03-01T05:12:48;2.97;;;2.83;;
9424;SDS011;17139;52.140;11.636;2023-03-01T05:15:17;4.75;;;4.28;;
9424;SDS011;17139;52.140;11.636;2023-03-01T05:17:45;4.70;;;3.10;;
9424;SDS011;17139;52.140;11.636;2023-03-01T05:20:12;2.63;;;2.47;;
9424;SDS011;17139;52.140;11.636;2023-03-01T05:22:40;2.00;;;1.90;;
9424;SDS011;17139;52.140;11.636;2023-03-01T05:25:07;2.30;;;2.20;;
9424;SDS011;17139;52.140;11.636;2023-03-01T05:27:34;2.87;;;2.67;;
9424;SDS011;17139;52.140;11.636;2023-03-01T05:30:01;2.23;;;2.10;;
9424;SDS011;17139;52.140;11.636;2023-03-01T05:32:39;9.43;;;5.50;;
9424;SDS011;17139;52.140;11.636;2023-03-01T05:35:09;6.68;;;4.68;;
9424;SDS011;17139;52.140;11.636;2023-03-01T05:37:39;10.60;;;5.78;;
9424;SDS011;17139;52.140;11.636;2023-03-01T05:40:08;3.60;;;3.40;;
9424;SDS011;17139;52.140;11.636;2023-03-01T05:42:41;3.17;;;2.97;;
9424;SDS011;17139;52.140;11.636;2023-03-01T05:45:11;3.00;;;2.83;;
9424;SDS011;17139;52.140;11.636;2023-03-01T05:47:39;5.33;;;2.90;;
9424;SDS011;17139;52.140;11.636;2023-03-01T05:50:11;12.23;;;3.03;;
9424;SDS011;17139;52.140;11.636;2023-03-01T05:52:43;2.00;;;1.80;;
9424;SDS011;17139;52.140;11.636;2023-03-01T05:55:11;4.43;;;2.28;;
9424;SDS011;17139;52.140;11.636;2023-03-01T05:57:38;4.15;;;3.85;;
9424;SDS011;17139;52.140;11.636;2023-03-01T06:00:05;5.13;;;3.50;;
9424;SDS011;17139;52.140;11.636;2023-03-01T06:02:33;2.30;;;2.00;;
9424;SDS011;17139;52.140;11.636;2023-03-01T06:05:00;3.10;;;2.90;;
9424;SDS011;17139;52.140;11.636;2023-03-01T06:07:28;1.93;;;1.83;;
9424;SDS011;17139;52.140;11.636;2023-03-01T06:09:55;7.07;;;2.10;;
9424;SDS011;17139;52.140;11.636;2023-03-01T06:12:22;2.30;;;2.20;;
9424;SDS011;17139;52.140;11.636;2023-03-01T06:14:49;2.60;;;2.50;;
9424;SDS011;17139;52.140;11.636;2023-03-01T06:17:16;5.10;;;3.30;;
9424;SDS011;17139;52.140;11.636;2023-03-01T06:19:43;7.90;;;3.47;;
9424;SDS011;17139;52.140;11.636;2023-03-01T06:22:10;2.40;;;2.30;;
9424;SDS011;17139;52.140;11.636;2023-03-01T06:24:39;7.75;;;3.55;;
9424;SDS011;17139;52.140;11.636;2023-03-01T06:27:06;12.70;;;5.90;;
9424;SDS011;17139;52.140;11.636;2023-03-01T06:29:33;3.70;;;3.40;;
9424;SDS011;17139;52.140;11.636;2023-03-01T06:32:00;3.47;;;2.97;;
9424;SDS011;17139;52.140;11.636;2023-03-01T06:34:28;2.37;;;2.27;;
9424;SDS011;17139;52.140;11.636;2023-03-01T06:36:55;3.63;;;2.33;;
9424;SDS011;17139;52.140;11.636;2023-03-01T06:39:22;2.67;;;2.43;;
9424;SDS011;17139;52.140;11.636;2023-03-01T06:41:50;4.37;;;4.03;;
9424;SDS011;17139;52.140;11.636;2023-03-01T06:44:17;3.47;;;3.17;;
9424;SDS011;17139;52.140;11.636;2023-03-01T06:46:44;3.40;;;3.10;;
9424;SDS011;17139;52.140;11.636;2023-03-01T06:49:11;10.23;;;5.90;;
9424;SDS011;17139;52.140;11.636;2023-03-01T06:51:38;4.13;;;3.73;;
9424;SDS011;17139;52.140;11.636;2023-03-01T06:54:05;2.70;;;2.60;;
9424;SDS011;17139;52.140;11.636;2023-03-01T06:56:33;2.43;;;2.23;;
9424;SDS011;17139;52.140;11.636;2023-03-01T06:59:01;2.53;;;2.43;;
9424;SDS011;17139;52.140;11.636;2023-03-01T07:01:28;3.23;;;2.97;;
9424;SDS011;17139;52.140;11.636;2023-03-01T07:03:56;3.17;;;2.97;;
9424;SDS011;17139;52.140;11.636;2023-03-01T07:06:23;3.57;;;3.30;;
9424;SDS011;17139;52.140;11.636;2023-03-01T07:08:50;4.63;;;3.00;;
9424;SDS011;17139;52.140;11.636;2023-03-01T07:11:17;2.10;;;2.00;;
9424;SDS011;17139;52.140;11.636;2023-03-01T07:13:44;3.13;;;2.93;;
9424;SDS011;17139;52.140;11.636;2023-03-01T07:16:12;5.70;;;5.07;;
9424;SDS011;17139;52.140;11.636;2023-03-01T07:18:40;3.27;;;3.13;;
9424;SDS011;17139;52.140;11.636;2023-03-01T07:21:08;2.47;;;2.37;;
9424;SDS011;17139;52.140;11.636;2023-03-01T07:23:38;3.43;;;3.13;;
9424;SDS011;17139;52.140;11.636;2023-03-01T07:26:05;2.23;;;2.10;;
9424;SDS011;17139;52.140;11.636;2023-03-01T07:28:32;8.87;;;3.10;;
9424;SDS011;17139;52.140;11.636;2023-03-01T07:31:01;2.60;;;2.43;;
9424;SDS011;17139;52.140;11.636;2023-03-01T07:33:30;2.83;;;2.73;;
9424;SDS011;17139;52.140;11.636;2023-03-01T07:35:58;2.50;;;2.33;;
9424;SDS011;17139;52.140;11.636;2023-03-01T07:38:26;4.67;;;2.80;;
9424;SDS011;17139;52.140;11.636;2023-03-01T07:40:57;5.15;;;4.70;;
9424;SDS011;17139;52.140;11.636;2023-03-01T07:43:25;6.35;;;5.75;;
9424;SDS011;17139;52.140;11.636;2023-03-01T07:45:52;4.20;;;3.90;;
9424;SDS011;17139;52.140;11.636;2023-03-01T07:48:19;7.33;;;5.20;;
9424;SDS011;17139;52.140;11.636;2023-03-01T07:50:48;8.27;;;5.10;;
9424;SDS011;17139;52.140;11.636;2023-03-01T07:53:15;8.90;;;3.83;;
9424;SDS011;17139;52.140;11.636;2023-03-01T07:55:42;5.47;;;3.73;;
9424;SDS011;17139;52.140;11.636;2023-03-01T07:58:09;5.57;;;3.67;;
9424;SDS011;17139;52.140;11.636;2023-03-01T08:00:36;7.50;;;6.13;;
9424;SDS011;17139;52.140;11.636;2023-03-01T08:03:03;15.27;;;6.13;;
9424;SDS011;17139;52.140;11.636;2023-03-01T08:05:30;14.23;;;8.90;;
9424;SDS011;17139;52.140;11.636;2023-03-01T08:07:58;6.53;;;5.90;;
9424;SDS011;17139;52.140;11.636;2023-03-01T08:10:25;7.83;;;3.83;;
9424;SDS011;17139;52.140;11.636;2023-03-01T08:12:52;9.10;;;4.60;;
9424;SDS011;17139;52.140;11.636;2023-03-01T08:15:19;4.90;;;3.40;;
9424;SDS011;17139;52.140;11.636;2023-03-01T08:17:48;9.67;;;3.20;;
9424;SDS011;17139;52.140;11.636;2023-03-01T08:20:16;3.27;;;3.07;;
9424;SDS011;17139;52.140;11.636;2023-03-01T08:22:43;3.70;;;2.93;;
9424;SDS011;17139;52.140;11.636;2023-03-01T08:25:12;5.13;;;2.83;;
9424;SDS011;17139;52.140;11.636;2023-03-01T08:27:39;4.57;;;4.18;;
9424;SDS011;17139;52.140;11.636;2023-03-01T08:30:06;3.57;;;3.27;;
9424;SDS011;17139;52.140;11.636;2023-03-01T08:32:37;2.73;;;2.63;;
9424;SDS011;17139;52.140;11.636;2023-03-01T08:35:05;6.63;;;3.17;;
9424;SDS011;17139;52.140;11.636;2023-03-01T08:37:32;1.77;;;1.77;;
9424;SDS011;17139;52.140;11.636;2023-03-01T08:39:59;2.00;;;1.90;;
9424;SDS011;17139;52.140;11.636;2023-03-01T08:42:28;2.63;;;2.43;;
9424;SDS011;17139;52.140;11.636;2023-03-01T08:44:55;2.30;;;2.20;;
9424;SDS011;17139;52.140;11.636;2023-03-01T08:47:23;2.53;;;2.43;;
9424;SDS011;17139;52.140;11.636;2023-03-01T08:49:51;4.57;;;4.18;;
9424;SDS011;17139;52.140;11.636;2023-03-01T08:52:18;5.45;;;4.97;;
9424;SDS011;17139;52.140;11.636;2023-03-01T08:54:46;2.53;;;2.40;;
9424;SDS011;17139;52.140;11.636;2023-03-01T08:57:14;3.47;;;3.07;;
9424;SDS011;17139;52.140;11.636;2023-03-01T08:59:42;3.17;;;2.83;;
9424;SDS011;17139;52.140;11.636;2023-03-01T09:02:10;3.37;;;3.07;;
9424;SDS011;17139;52.140;11.636;2023-03-01T09:04:39;2.80;;;2.70;;
9424;SDS011;17139;52.140;11.636;2023-03-01T09:07:07;5.27;;;2.80;;
9424;SDS011;17139;52.140;11.636;2023-03-01T09:09:35;2.30;;;2.20;;
9424;SDS011;17139;52.140;11.636;2023-03-01T09:12:03;4.68;;;3.92;;
9424;SDS011;17139;52.140;11.636;2023-03-01T09:14:30;3.30;;;3.10;;
9424;SDS011;17139;52.140;11.636;2023-03-01T09:16:59;2.43;;;2.33;;
9424;SDS011;17139;52.140;11.636;2023-03-01T09:19:28;3.20;;;3.00;;
9424;SDS011;17139;52.140;11.636;2023-03-01T09:21:55;4.93;;;4.63;;
9424;SDS011;17139;52.140;11.636;2023-03-01T09:24:23;3.57;;;3.37;;
9424;SDS011;17139;52.140;11.636;2023-03-01T09:26:52;3.87;;;2.73;;
9424;SDS011;17139;52.140;11.636;2023-03-01T09:29:20;2.70;;;2.60;;
9424;SDS011;17139;52.140;11.636;2023-03-01T09:31:48;9.68;;;4.57;;
9424;SDS011;17139;52.140;11.636;2023-03-01T09:34:17;4.82;;;4.43;;
9424;SDS011;17139;52.140;11.636;2023-03-01T09:36:48;8.77;;;2.87;;
9424;SDS011;17139;52.140;11.636;2023-03-01T09:39:16;3.23;;;3.03;;
9424;SDS011;17139;52.140;11.636;2023-03-01T09:41:46;2.73;;;2.53;;
9424;SDS011;17139;52.140;11.636;2023-03-01T09:44:20;2.20;;;2.10;;
9424;SDS011;17139;52.140;11.636;2023-03-01T09:46:56;4.45;;;4.05;;
9424;SDS011;17139;52.140;11.636;2023-03-01T09:49:26;6.15;;;4.72;;
9424;SDS011;17139;52.140;11.636;2023-03-01T09:51:56;2.47;;;2.00;;
9424;SDS011;17139;52.140;11.636;2023-03-01T09:54:27;3.53;;;2.73;;
9424;SDS011;17139;52.140;11.636;2023-03-01T09:56:59;7.67;;;2.50;;
9424;SDS011;17139;52.140;11.636;2023-03-01T09:59:36;2.30;;;2.10;;
9424;SDS011;17139;52.140;11.636;2023-03-01T10:02:16;0.73;;;0.73;;
9424;SDS011;17139;52.140;11.636;2023-03-01T10:04:54;2.27;;;2.17;;
9424;SDS011;17139;52.140;11.636;2023-03-01T10:07:31;4.63;;;3.00;;
9424;SDS011;17139;52.140;11.636;2023-03-01T10:10:05;2.10;;;1.57;;
9424;SDS011;17139;52.140;11.636;2023-03-01T10:12:33;3.03;;;2.83;;
9424;SDS011;17139;52.140;11.636;2023-03-01T10:15:05;3.55;;;3.28;;
9424;SDS011;17139;52.140;11.636;2023-03-01T10:17:38;2.50;;;2.40;;
9424;SDS011;17139;52.140;11.636;2023-03-01T10:20:17;2.50;;;2.40;;
9424;SDS011;17139;52.140;11.636;2023-03-01T10:22:47;1.60;;;1.50;;
9424;SDS011;17139;52.140;11.636;2023-03-01T10:25:20;7.43;;;2.23;;
9424;SDS011;17139;52.140;11.636;2023-03-01T10:28:05;1.67;;;1.63;;
9424;SDS011;17139;52.140;11.636;2023-03-01T10:30:42;2.60;;;2.50;;
9424;SDS011;17139;52.140;11.636;2023-03-01T10:33:13;2.10;;;2.00;;
9424;SDS011;17139;52.140;11.636;2023-03-01T10:35:45;3.60;;;2.73;;
9424;SDS011;17139;52.140;11.636;2023-03-01T10:38:12;2.93;;;2.73;;
9424;SDS011;17139;52.140;11.636;2023-03-01T10:40:49;2.03;;;1.53;;
9424;SDS011;17139;52.140;11.636;2023-03-01T10:43:19;2.00;;;1.90;;
9424;SDS011;17139;52.140;11.636;2023-03-01T10:45:47;2.03;;;1.93;;
9424;SDS011;17139;52.140;11.636;2023-03-01T10:48:15;4.20;;;1.33;;
9424;SDS011;17139;52.140;11.636;2023-03-01T10:50:46;2.27;;;2.17;;
9424;SDS011;17139;52.140;11.636;2023-03-01T10:53:20;2.80;;;2.70;;
9424;SDS011;17139;52.140;11.636;2023-03-01T10:56:01;2.10;;;2.00;;
9424;SDS011;17139;52.140;11.636;2023-03-01T10:58:32;2.23;;;2.13;;
9424;SDS011;17139;52.140;11.636;2023-03-01T11:01:01;2.00;;;1.87;;
9424;SDS011;17139;52.140;11.636;2023-03-01T11:03:31;0.47;;;0.47;;
9424;SDS011;17139;52.140;11.636;2023-03-01T11:06:05;2.60;;;2.40;;
9424;SDS011;17139;52.140;11.636;2023-03-01T11:08:46;2.00;;;1.43;;
9424;SDS011;17139;52.140;11.636;2023-03-01T11:11:20;1.60;;;1.50;;
9424;SDS011;17139;52.140;11.636;2023-03-01T11:13:54;1.30;;;1.30;;
9424;SDS011;17139;52.140;11.636;2023-03-01T11:16:24;2.60;;;2.37;;
9424;SDS011;17139;52.140;11.636;2023-03-01T11:21:55;2.73;;;2.53;;
9424;SDS011;17139;52.140;11.636;2023-03-01T11:24:27;2.53;;;2.17;;
9424;SDS011;17139;52.140;11.636;2023-03-01T11:27:08;2.70;;;2.40;;
9424;SDS011;17139;52.140;11.636;2023-03-01T11:29:45;1.87;;;1.83;;
9424;SDS011;17139;52.140;11.636;2023-03-01T11:32:16;2.07;;;1.97;;
9424;SDS011;17139;52.140;11.636;2023-03-01T11:34:47;2.20;;;2.10;;
9424;SDS011;17139;52.140;11.636;2023-03-01T11:37:22;5.60;;;2.20;;
9424;SDS011;17139;52.140;11.636;2023-03-01T11:39:58;1.90;;;1.80;;
9424;SDS011;17139;52.140;11.636;2023-03-01T11:42:37;2.53;;;2.43;;
9424;SDS011;17139;52.140;11.636;2023-03-01T11:45:12;1.57;;;1.13;;
9424;SDS011;17139;52.140;11.636;2023-03-01T11:47:43;2.43;;;2.33;;
9424;SDS011;17139;52.140;11.636;2023-03-01T11:50:26;1.60;;;1.60;;
9424;SDS011;17139;52.140;11.636;2023-03-01T11:53:13;2.30;;;2.20;;
9424;SDS011;17139;52.140;11.636;2023-03-01T11:55:58;1.87;;;1.77;;
9424;SDS011;17139;52.140;11.636;2023-03-01T12:01:36;1.10;;;1.10;;
9424;SDS011;17139;52.140;11.636;2023-03-01T12:07:20;1.30;;;0.93;;
9424;SDS011;17139;52.140;11.636;2023-03-01T12:10:06;2.40;;;2.20;;
9424;SDS011;17139;52.140;11.636;2023-03-01T12:13:05;3.00;;;2.80;;
9424;SDS011;17139;52.140;11.636;2023-03-01T12:15:59;3.00;;;2.90;;
9424;SDS011;17139;52.140;11.636;2023-03-01T12:21:38;1.87;;;1.87;;
9424;SDS011;17139;52.140;11.636;2023-03-01T12:24:20;3.07;;;2.50;;
9424;SDS011;17139;52.140;11.636;2023-03-01T12:27:16;0.83;;;0.83;;
9424;SDS011;17139;52.140;11.636;2023-03-01T12:29:59;1.70;;;1.70;;
9424;SDS011;17139;52.140;11.636;2023-03-01T12:32:40;0.47;;;0.47;;
9424;SDS011;17139;52.140;11.636;2023-03-01T12:38:20;2.40;;;2.30;;
9424;SDS011;17139;52.140;11.636;2023-03-01T12:44:10;3.07;;;1.93;;
9424;SDS011;17139;52.140;11.636;2023-03-01T12:46:51;2.40;;;2.30;;
9424;SDS011;17139;52.140;11.636;2023-03-01T12:49:30;2.20;;;2.00;;
9424;SDS011;17139;52.140;11.636;2023-03-01T12:52:02;1.47;;;1.47;;
9424;SDS011;17139;52.140;11.636;2023-03-01T12:54:37;1.60;;;1.60;;
9424;SDS011;17139;52.140;11.636;2023-03-01T12:57:06;2.20;;;2.10;;
9424;SDS011;17139;52.140;11.636;2023-03-01T12:59:42;1.83;;;1.73;;
9424;SDS011;17139;52.140;11.636;2023-03-01T13:02:19;1.63;;;1.23;;
9424;SDS011;17139;52.140;11.636;2023-03-01T13:04:59;1.00;;;1.00;;
9424;SDS011;17139;52.140;11.636;2023-03-01T13:07:34;1.50;;;1.50;;
9424;SDS011;17139;52.140;11.636;2023-03-01T13:10:16;1.40;;;1.40;;
9424;SDS011;17139;52.140;11.636;2023-03-01T13:12:52;2.00;;;1.90;;
9424;SDS011;17139;52.140;11.636;2023-03-01T13:15:31;9.40;;;1.93;;
9424;SDS011;17139;52.140;11.636;2023-03-01T13:18:00;1.83;;;1.73;;
9424;SDS011;17139;52.140;11.636;2023-03-01T13:20:33;1.80;;;1.70;;
9424;SDS011;17139;52.140;11.636;2023-03-01T13:23:13;2.07;;;1.97;;
9424;SDS011;17139;52.140;11.636;2023-03-01T13:26:02;0.67;;;0.67;;
9424;SDS011;17139;52.140;11.636;2023-03-01T13:37:24;2.30;;;2.20;;
9424;SDS011;17139;52.140;11.636;2023-03-01T13:39:56;2.27;;;2.13;;
9424;SDS011;17139;52.140;11.636;2023-03-01T13:45:21;2.53;;;2.33;;
9424;SDS011;17139;52.140;11.636;2023-03-01T13:47:55;2.50;;;2.40;;
9424;SDS011;17139;52.140;11.636;2023-03-01T13:50:27;1.57;;;1.50;;
9424;SDS011;17139;52.140;11.636;2023-03-01T13:52:58;1.93;;;1.73;;
9424;SDS011;17139;52.140;11.636;2023-03-01T13:55:31;4.13;;;1.67;;
9424;SDS011;17139;52.140;11.636;2023-03-01T13:58:04;1.97;;;1.90;;
9424;SDS011;17139;52.140;11.636;2023-03-01T14:00:41;2.27;;;1.77;;
9424;SDS011;17139;52.140;11.636;2023-03-01T14:03:09;1.43;;;1.33;;
9424;SDS011;17139;52.140;11.636;2023-03-01T14:05:39;1.97;;;1.87;;
9424;SDS011;17139;52.140;11.636;2023-03-01T14:08:18;2.40;;;1.27;;
9424;SDS011;17139;52.140;11.636;2023-03-01T14:10:51;3.05;;;2.80;;
9424;SDS011;17139;52.140;11.636;2023-03-01T14:13:28;2.80;;;2.70;;
9424;SDS011;17139;52.140;11.636;2023-03-01T14:16:13;2.63;;;2.00;;
9424;SDS011;17139;52.140;11.636;2023-03-01T14:18:52;1.97;;;1.97;;
9424;SDS011;17139;52.140;11.636;2023-03-01T14:21:30;2.43;;;2.33;;
9424;SDS011;17139;52.140;11.636;2023-03-01T14:23:57;2.33;;;2.13;;
9424;SDS011;17139;52.140;11.636;2023-03-01T14:26:24;1.43;;;1.33;;
9424;SDS011;17139;52.140;11.636;2023-03-01T14:28:52;1.50;;;1.50;;
9424;SDS011;17139;52.140;11.636;2023-03-01T14:31:34;1.03;;;1.03;;
9424;SDS011;17139;52.140;11.636;2023-03-01T14:34:03;1.33;;;1.33;;
9424;SDS011;17139;52.140;11.636;2023-03-01T14:36:33;2.00;;;1.90;;
9424;SDS011;17139;52.140;11.636;2023-03-01T14:39:00;2.80;;;2.60;;
9424;SDS011;17139;52.140;11.636;2023-03-01T14:41:41;2.77;;;2.63;;
9424;SDS011;17139;52.140;11.636;2023-03-01T14:44:12;1.97;;;1.87;;
9424;SDS011;17139;52.140;11.636;2023-03-01T14:46:43;2.10;;;1.90;;
9424;SDS011;17139;52.140;11.636;2023-03-01T14:49:12;1.73;;;1.73;;
9424;SDS011;17139;52.140;11.636;2023-03-01T14:51:46;1.37;;;1.37;;
9424;SDS011;17139;52.140;11.636;2023-03-01T14:54:20;1.67;;;1.57;;
9424;SDS011;17139;52.140;11.636;2023-03-01T14:56:50;1.90;;;1.80;;
9424;SDS011;17139;52.140;11.636;2023-03-01T14:59:18;2.23;;;2.00;;
9424;SDS011;17139;52.140;11.636;2023-03-01T15:01:47;2.27;;;2.17;;
9424;SDS011;17139;52.140;11.636;2023-03-01T15:04:15;1.80;;;1.70;;
9424;SDS011;17139;52.140;11.636;2023-03-01T15:06:44;1.73;;;1.70;;
9424;SDS011;17139;52.140;11.636;2023-03-01T15:09:12;1.20;;;1.20;;
9424;SDS011;17139;52.140;11.636;2023-03-01T15:11:42;1.27;;;1.27;;
9424;SDS011;17139;52.140;11.636;2023-03-01T15:14:25;1.30;;;1.30;;
9424;SDS011;17139;52.140;11.636;2023-03-01T15:16:55;2.27;;;1.27;;
9424;SDS011;17139;52.140;11.636;2023-03-01T15:19:23;1.97;;;1.97;;
9424;SDS011;17139;52.140;11.636;2023-03-01T15:21:55;1.40;;;1.30;;
9424;SDS011;17139;52.140;11.636;2023-03-01T15:24:24;1.80;;;1.70;;
9424;SDS011;17139;52.140;11.636;2023-03-01T15:26:54;2.20;;;2.10;;
9424;SDS011;17139;52.140;11.636;2023-03-01T15:29:27;1.80;;;1.70;;
9424;SDS011;17139;52.140;11.636;2023-03-01T15:31:56;1.70;;;1.70;;
9424;SDS011;17139;52.140;11.636;2023-03-01T15:34:25;1.30;;;1.30;;
9424;SDS011;17139;52.140;11.636;2023-03-01T15:36:54;1.77;;;1.70;;
9424;SDS011;17139;52.140;11.636;2023-03-01T15:39:35;1.47;;;1.47;;
9424;SDS011;17139;52.140;11.636;2023-03-01T15:42:05;1.20;;;1.20;;